Time;durP1;ratioP1;P1;durP2;ratioP2;P2;SDS_P1;SDS_P2;PMS_P1;PMS_P2;Temp;Humidity;BMP_temperature;BMP_pressure;BME280_temperature;BME280_humidity;BME280_pressure;Samples;Min_cycle;Max_cycle;Signal;HPM_P1;HPM_P2
2023/04/01 00:01:50;;;;;;;3.87;2.10;;;;;;;8.25;100.00;97354.91;4485027;31;20092;-66
2023/04/01 00:04:17;;;;;;;3.97;2.05;;;;;;;8.23;100.00;97357.66;4485158;32;20495;-66
2023/04/01 00:06:45;;;;;;;3.60;1.85;;;;;;;8.23;100.00;97357.66;4485145;31;20145;-66
2023/04/01 00:09:12;;;;;;;8.05;2.30;;;;;;;8.30;100.00;97358.69;4484891;31;20160;-65
2023/04/01 00:11:40;;;;;;;4.43;2.90;;;;;;;8.44;100.00;97344.25;4483853;32;20157;-66
2023/04/01 00:14:07;;;;;;;5.95;3.42;;;;;;;8.48;100.00;97349.97;4485000;31;20115;-66
2023/04/01 00:16:34;;;;;;;9.30;3.47;;;;;;;8.55;100.00;97360.59;4484976;31;20145;-66
2023/04/01 00:19:02;;;;;;;4.97;3.33;;;;;;;8.56;100.00;97354.41;4485027;31;20096;-66
2023/04/01 00:21:30;;;;;;;4.32;3.12;;;;;;;8.59;100.00;97354.88;4484614;31;20104;-66
2023/04/01 00:23:57;;;;;;;4.53;3.45;;;;;;;8.63;100.00;97348.37;4484935;31;20099;-66
2023/04/01 00:26:25;;;;;;;6.85;3.53;;;;;;;8.64;100.00;97343.97;4484842;32;20145;-65
2023/04/01 00:28:52;;;;;;;6.00;3.30;;;;;;;8.69;100.00;97345.12;4485122;32;20093;-65
2023/04/01 00:31:20;;;;;;;6.78;3.40;;;;;;;8.65;100.00;97343.00;4484934;31;20570;-66
2023/04/01 00:33:48;;;;;;;5.65;3.30;;;;;;;8.59;100.00;97341.84;4484738;31;20155;-66
2023/04/01 00:36:21;;;;;;;8.32;4.87;;;;;;;8.64;100.00;97344.78;4485013;31;20424;-66
2023/04/01 00:38:49;;;;;;;;;;;;;;;8.71;100.00;97344.97;4485262;31;20092;-65
2023/04/01 00:41:17;;;;;;;12.00;5.32;;;;;;;8.67;100.00;97338.41;4484937;31;20393;-65
2023/04/01 00:43:50;;;;;;;9.73;4.47;;;;;;;8.66;100.00;97342.00;4484785;31;20092;-66
2023/04/01 00:46:18;;;;;;;6.78;3.97;;;;;;;8.64;100.00;97342.16;4484847;31;20110;-65
2023/04/01 00:48:51;;;;;;;5.37;3.55;;;;;;;8.58;100.00;97337.56;4484570;31;20131;-65
2023/04/01 00:51:22;;;;;;;9.45;4.20;;;;;;;8.67;100.00;97341.03;4484708;31;20093;-66
2023/04/01 00:53:51;;;;;;;7.95;4.22;;;;;;;8.62;100.00;97344.12;4484617;31;20106;-65
2023/04/01 00:56:22;;;;;;;6.00;3.78;;;;;;;8.65;100.00;97343.81;4483365;32;20111;-66
2023/04/01 00:58:52;;;;;;;6.90;3.65;;;;;;;8.65;100.00;97340.37;4483691;32;20096;-66
2023/04/01 01:01:21;;;;;;;6.03;3.90;;;;;;;8.65;100.00;97341.19;4484577;31;20626;-66
2023/04/01 01:03:49;;;;;;;9.90;4.25;;;;;;;8.62;100.00;97346.72;4483224;32;20112;-66
2023/04/01 01:06:50;;;;;;;6.22;4.22;;;;;;;8.63;100.00;97342.31;4484424;31;20101;-66
2023/04/01 01:09:26;;;;;;;5.62;3.83;;;;;;;8.63;100.00;97348.37;4484623;31;20122;-65
2023/04/01 01:12:13;;;;;;;14.20;4.32;;;;;;;8.56;100.00;97344.75;4484598;31;20110;-65
2023/04/01 01:14:56;;;;;;;13.40;4.03;;;;;;;8.59;100.00;97343.63;4484681;31;20088;-65
2023/04/01 01:17:35;;;;;;;29.37;5.07;;;;;;;8.59;100.00;97335.81;4483154;32;20088;-65
2023/04/01 01:20:30;;;;;;;7.93;4.40;;;;;;;8.61;100.00;97333.84;4484013;31;20154;-65
2023/04/01 01:22:57;;;;;;;28.73;5.03;;;;;;;8.59;100.00;97330.59;4484801;31;20088;-65
2023/04/01 01:25:25;;;;;;;53.20;5.47;;;;;;;8.66;100.00;97332.41;4485949;31;20153;-65
2023/04/01 01:28:09;;;;;;;64.18;6.45;;;;;;;8.55;100.00;97335.28;4486216;31;20101;-65
2023/04/01 01:30:51;;;;;;;44.33;4.90;;;;;;;8.34;100.00;97336.53;4486066;31;20097;-65
2023/04/01 01:33:32;;;;;;;28.30;5.12;;;;;;;8.29;100.00;97341.37;4486043;32;20486;-66
2023/04/01 01:36:02;;;;;;;59.85;5.20;;;;;;;8.26;100.00;97327.84;4486321;31;20095;-65
2023/04/01 01:38:31;;;;;;;21.58;5.10;;;;;;;8.27;100.00;97327.69;4485154;32;20529;-65
2023/04/01 01:40:59;;;;;;;6.22;3.50;;;;;;;8.25;100.00;97328.81;4484847;32;20470;-65
2023/04/01 01:43:30;;;;;;;4.22;2.22;;;;;;;8.30;100.00;97324.75;4484928;32;20100;-65
2023/04/01 01:46:02;;;;;;;3.62;2.75;;;;;;;8.33;100.00;97321.03;4486286;31;20578;-66
2023/04/01 01:48:31;;;;;;;4.12;2.95;;;;;;;8.23;100.00;97326.37;4485090;32;20511;-66
2023/04/01 01:50:58;;;;;;;3.75;2.75;;;;;;;8.26;100.00;97333.06;4484768;32;20499;-65
2023/04/01 01:53:25;;;;;;;5.32;2.20;;;;;;;8.36;100.00;97325.94;4484740;32;20109;-65
2023/04/01 01:55:53;;;;;;;3.17;2.08;;;;;;;8.25;100.00;97329.66;4486235;31;20092;-65
2023/04/01 01:58:40;;;;;;;4.55;1.87;;;;;;;8.30;100.00;97323.97;4486160;31;20548;-65
2023/04/01 02:01:15;;;;;;;6.32;2.67;;;;;;;8.26;100.00;97317.41;4484841;32;20104;-65
2023/04/01 02:03:43;;;;;;;3.50;1.60;;;;;;;8.35;100.00;97317.25;4484979;32;20105;-65
2023/04/01 02:06:15;;;;;;;5.03;2.03;;;;;;;8.29;100.00;97314.47;4486063;31;20084;-65
2023/04/01 02:08:52;;;;;;;3.00;1.58;;;;;;;8.40;100.00;97311.56;4484970;32;20084;-66
2023/04/01 02:11:26;;;;;;;2.28;1.27;;;;;;;8.41;100.00;97307.19;4485850;31;20115;-65
2023/04/01 02:14:05;;;;;;;6.05;2.20;;;;;;;8.35;100.00;97321.69;4484725;32;20167;-65
2023/04/01 02:16:44;;;;;;;3.28;1.58;;;;;;;8.24;100.00;97314.97;4484585;32;20404;-65
2023/04/01 02:19:12;;;;;;;2.30;1.62;;;;;;;8.25;100.00;97305.34;4484889;32;20080;-65
2023/04/01 02:21:40;;;;;;;3.10;1.87;;;;;;;8.29;100.00;97298.84;4484546;32;20105;-65
2023/04/01 02:24:11;;;;;;;3.47;1.65;;;;;;;8.30;100.00;97296.06;4486221;31;20088;-65
2023/04/01 02:26:39;;;;;;;2.67;1.70;;;;;;;8.21;100.00;97301.44;4485958;31;20106;-65
2023/04/01 02:29:08;;;;;;;4.22;1.77;;;;;;;8.18;100.00;97298.13;4484781;32;20088;-65
2023/04/01 02:31:35;;;;;;;2.20;1.48;;;;;;;8.18;100.00;97299.94;4484493;32;20116;-65
2023/04/01 02:34:04;;;;;;;2.28;1.30;;;;;;;8.12;100.00;97295.37;4484202;32;20112;-65
2023/04/01 02:36:32;;;;;;;2.92;1.25;;;;;;;8.08;100.00;97291.44;4485434;31;20156;-65
2023/04/01 02:39:02;;;;;;;3.17;1.15;;;;;;;8.15;100.00;97293.25;4484474;32;20076;-65
2023/04/01 02:41:30;;;;;;;1.33;0.98;;;;;;;8.06;100.00;97288.97;4485815;31;20144;-65
2023/04/01 02:43:58;;;;;;;1.12;1.02;;;;;;;8.06;100.00;97296.00;4485544;31;20093;-65
2023/04/01 02:46:25;;;;;;;1.75;1.10;;;;;;;8.04;100.00;97295.31;4485866;31;20155;-65
2023/04/01 02:48:53;;;;;;;3.62;1.23;;;;;;;8.00;100.00;97297.44;4485738;31;20118;-65
2023/04/01 02:51:20;;;;;;;2.72;1.02;;;;;;;7.98;100.00;97302.81;4485682;31;20093;-65
2023/04/01 02:53:47;;;;;;;1.45;0.90;;;;;;;7.96;100.00;97299.53;4485668;32;20096;-65
2023/04/01 02:56:15;;;;;;;3.65;1.25;;;;;;;7.94;100.00;97298.06;4485518;31;20103;-65
2023/04/01 02:58:42;;;;;;;3.28;1.20;;;;;;;7.88;100.00;97304.72;4485718;31;20202;-65
2023/04/01 03:01:09;;;;;;;2.58;1.10;;;;;;;7.89;100.00;97308.13;4485382;31;20164;-65
2023/04/01 03:03:38;;;;;;;0.85;0.70;;;;;;;7.89;100.00;97306.34;4485661;32;20435;-65
2023/04/01 03:06:10;;;;;;;1.17;0.77;;;;;;;7.88;100.00;97315.12;4485201;31;20416;-65
2023/04/01 03:08:37;;;;;;;3.45;1.15;;;;;;;7.92;100.00;97305.22;4485491;32;20089;-64
2023/04/01 03:11:05;;;;;;;1.23;0.82;;;;;;;7.93;100.00;97299.88;4485687;31;20383;-64
2023/04/01 03:13:33;;;;;;;2.03;1.02;;;;;;;7.93;100.00;97292.03;4485653;31;20183;-64
2023/04/01 03:16:01;;;;;;;1.23;1.00;;;;;;;7.87;100.00;97297.84;4485757;31;20088;-65
2023/04/01 03:18:28;;;;;;;4.85;1.08;;;;;;;7.80;100.00;97309.91;4485481;31;20108;-64
2023/04/01 03:20:56;;;;;;;2.00;0.90;;;;;;;7.77;100.00;97310.22;4485325;32;20385;-65
2023/04/01 03:23:24;;;;;;;1.30;0.88;;;;;;;7.75;100.00;97312.97;4485139;32;20406;-64
2023/04/01 03:25:51;;;;;;;3.08;0.80;;;;;;;7.70;100.00;97317.00;4485496;31;20088;-64
2023/04/01 03:28:18;;;;;;;2.40;0.80;;;;;;;7.66;100.00;97318.28;4485355;31;20397;-64
2023/04/01 03:30:45;;;;;;;2.12;1.02;;;;;;;7.57;100.00;97317.41;4485550;31;20152;-64
2023/04/01 03:33:12;;;;;;;3.22;0.90;;;;;;;7.52;100.00;97323.09;4485411;31;20104;-64
2023/04/01 03:35:40;;;;;;;1.42;0.88;;;;;;;7.45;100.00;97322.09;4485230;31;20088;-64
2023/04/01 03:38:07;;;;;;;2.28;0.88;;;;;;;7.34;100.00;97333.53;4485258;31;20088;-64
2023/04/01 03:40:37;;;;;;;3.08;0.80;;;;;;;7.27;100.00;97325.53;4485240;31;20092;-65
2023/04/01 03:43:08;;;;;;;1.75;0.93;;;;;;;7.25;100.00;97324.88;4485154;31;20753;-65
2023/04/01 03:45:46;;;;;;;2.67;0.73;;;;;;;7.20;100.00;97331.50;4485376;31;20438;-64
2023/04/01 03:48:15;;;;;;;1.52;0.85;;;;;;;7.15;100.00;97331.97;4485505;31;20215;-64
2023/04/01 03:50:43;;;;;;;1.20;0.73;;;;;;;7.19;100.00;97329.84;4485119;31;20119;-64
2023/04/01 03:53:11;;;;;;;1.35;0.95;;;;;;;7.20;100.00;97334.91;4485251;31;20446;-64
2023/04/01 03:55:39;;;;;;;0.80;0.70;;;;;;;7.23;100.00;97345.03;4484145;32;20100;-64
2023/04/01 03:58:07;;;;;;;0.90;0.62;;;;;;;7.22;100.00;97334.75;4485368;31;20775;-64
2023/04/01 04:00:35;;;;;;;1.27;0.75;;;;;;;7.14;100.00;97332.91;4485536;31;20171;-64
2023/04/01 04:03:03;;;;;;;1.65;0.77;;;;;;;7.25;100.00;97345.72;4485091;31;20096;-64
2023/04/01 04:05:30;;;;;;;2.00;0.70;;;;;;;7.25;100.00;97334.47;4485536;31;20088;-64
2023/04/01 04:07:58;;;;;;;1.15;0.70;;;;;;;7.29;100.00;97339.22;4483967;32;20152;-64
2023/04/01 04:10:25;;;;;;;0.82;0.80;;;;;;;7.36;100.00;97338.59;4485322;31;20142;-64
2023/04/01 04:12:53;;;;;;;4.68;0.80;;;;;;;7.33;100.00;97338.91;4485225;31;20096;-64
2023/04/01 04:15:21;;;;;;;0.95;0.75;;;;;;;7.28;100.00;97335.00;4485288;32;20088;-64
2023/04/01 04:17:48;;;;;;;2.33;0.70;;;;;;;7.27;100.00;97335.94;4485011;31;20158;-64
2023/04/01 04:20:16;;;;;;;1.58;0.70;;;;;;;7.33;100.00;97341.50;4484887;32;20092;-64
2023/04/01 04:22:43;;;;;;;1.10;0.73;;;;;;;7.31;100.00;97346.88;4485332;31;20115;-64
2023/04/01 04:25:11;;;;;;;1.17;0.60;;;;;;;7.32;100.00;97342.50;4485263;31;20088;-64
2023/04/01 04:27:38;;;;;;;2.35;0.80;;;;;;;7.30;100.00;97337.44;4485294;31;20100;-64
2023/04/01 04:30:07;;;;;;;1.48;0.60;;;;;;;7.31;100.00;97335.66;4485241;31;20104;-64
2023/04/01 04:32:36;;;;;;;0.80;0.60;;;;;;;7.36;100.00;97330.78;4485098;31;20183;-64
2023/04/01 04:35:04;;;;;;;2.10;1.00;;;;;;;7.37;100.00;97332.44;4485136;31;20088;-64
2023/04/01 04:37:31;;;;;;;1.27;0.77;;;;;;;7.33;100.00;97333.69;4485218;31;20101;-64
2023/04/01 04:39:59;;;;;;;1.20;0.80;;;;;;;7.25;100.00;97332.69;4485045;31;20394;-64
2023/04/01 04:42:27;;;;;;;1.90;0.65;;;;;;;7.37;100.00;97332.44;4484952;31;20105;-64
2023/04/01 04:44:55;;;;;;;1.37;0.73;;;;;;;7.38;100.00;97331.47;4485135;32;20168;-64
2023/04/01 04:47:22;;;;;;;4.18;0.70;;;;;;;7.40;100.00;97332.13;4485167;31;20092;-64
2023/04/01 04:49:50;;;;;;;3.25;0.90;;;;;;;7.39;100.00;97331.31;4484941;31;20438;-64
2023/04/01 04:52:17;;;;;;;1.62;0.80;;;;;;;7.46;100.00;97340.16;4484888;32;20165;-64
2023/04/01 04:54:45;;;;;;;1.90;0.80;;;;;;;7.54;100.00;97339.41;4484704;31;20202;-64
2023/04/01 04:57:12;;;;;;;1.37;0.57;;;;;;;7.59;100.00;97344.97;4484023;31;20459;-64
2023/04/01 04:59:40;;;;;;;1.15;0.85;;;;;;;7.71;100.00;97342.91;4485033;31;20093;-64
2023/04/01 05:02:08;;;;;;;1.50;0.77;;;;;;;7.91;100.00;97338.28;4484701;31;20581;-64
2023/04/01 05:04:36;;;;;;;2.20;1.10;;;;;;;8.00;100.00;97334.75;4484514;32;20167;-64
2023/04/01 05:07:04;;;;;;;1.70;0.70;;;;;;;8.11;100.00;97328.44;4484791;31;20096;-64
2023/04/01 05:09:31;;;;;;;0.62;0.60;;;;;;;8.29;100.00;97332.75;4484776;31;20727;-64
2023/04/01 05:11:59;;;;;;;1.75;0.82;;;;;;;8.32;100.00;97330.63;4484745;31;20152;-64
2023/04/01 05:14:27;;;;;;;3.25;1.30;;;;;;;8.30;100.00;97331.78;4484426;31;20525;-64
2023/04/01 05:16:55;;;;;;;5.00;1.50;;;;;;;8.43;100.00;97323.50;4484739;32;20158;-64
2023/04/01 05:19:22;;;;;;;3.00;1.10;;;;;;;8.49;100.00;97339.38;4484316;31;20152;-64
2023/04/01 05:21:49;;;;;;;3.28;1.10;;;;;;;8.43;100.00;97339.16;4484185;32;20144;-64
2023/04/01 05:24:17;;;;;;;12.73;2.12;;;;;;;8.43;100.00;97341.75;4484153;31;20112;-64
2023/04/01 05:26:44;;;;;;;2.90;1.10;;;;;;;8.65;100.00;97345.59;4484460;31;20119;-64
2023/04/01 05:29:11;;;;;;;2.65;1.30;;;;;;;8.64;100.00;97343.97;4484401;31;20513;-64
2023/04/01 05:31:39;;;;;;;2.30;1.40;;;;;;;8.71;100.00;97344.97;4484442;31;20096;-64
2023/04/01 05:34:07;;;;;;;6.12;1.75;;;;;;;8.66;100.00;97350.66;4484299;32;20122;-64
2023/04/01 05:36:35;;;;;;;4.10;1.60;;;;;;;8.81;100.00;97356.09;4484107;32;20160;-64
2023/04/01 05:39:03;;;;;;;1.67;1.20;;;;;;;8.81;100.00;97348.25;4484008;32;20104;-64
2023/04/01 05:41:30;;;;;;;5.10;1.50;;;;;;;8.83;100.00;97348.09;4484363;31;20100;-64
2023/04/01 05:43:57;;;;;;;2.83;1.40;;;;;;;8.85;100.00;97349.53;4483920;31;20114;-64
2023/04/01 05:46:27;;;;;;;4.95;2.58;;;;;;;8.83;100.00;97354.13;4484190;31;20802;-65
2023/04/01 05:48:55;;;;;;;3.05;1.50;;;;;;;8.83;100.00;97350.69;4484032;31;20122;-64
2023/04/01 05:51:23;;;;;;;1.98;1.25;;;;;;;8.82;100.00;97351.66;4482789;32;20813;-64
2023/04/01 05:53:51;;;;;;;1.92;1.50;;;;;;;8.93;100.00;97356.56;4483985;32;20112;-64
2023/04/01 05:56:18;;;;;;;4.05;1.50;;;;;;;9.04;100.00;97351.03;4483859;31;20088;-64
2023/04/01 05:58:50;;;;;;;2.37;1.40;;;;;;;8.99;100.00;97357.72;4483938;31;20140;-64
2023/04/01 06:01:18;;;;;;;3.08;1.48;;;;;;;9.10;100.00;97354.81;4484088;31;20084;-65
2023/04/01 06:03:46;;;;;;;3.42;1.83;;;;;;;9.13;100.00;97359.72;4483795;31;20096;-65
2023/04/01 06:06:25;;;;;;;2.67;1.42;;;;;;;9.20;100.00;97357.25;4483597;31;20462;-65
2023/04/01 06:08:56;;;;;;;3.03;1.30;;;;;;;9.27;100.00;97349.59;4484548;31;20088;-65
2023/04/01 06:11:32;;;;;;;1.65;1.02;;;;;;;9.31;100.00;97351.72;4485841;31;20156;-65
2023/04/01 06:14:10;;;;;;;4.12;1.48;;;;;;;9.45;100.00;97352.84;4485785;32;20096;-65
2023/04/01 06:16:59;;;;;;;3.05;1.48;;;;;;;9.52;100.00;97347.75;4484870;32;20111;-65
2023/04/01 06:19:51;;;;;;;2.03;1.30;;;;;;;9.42;100.00;97347.94;4486145;32;20203;-65
2023/04/01 06:22:34;;;;;;;2.17;1.30;;;;;;;9.70;100.00;97339.72;4485832;31;20100;-65
2023/04/01 06:25:20;;;;;;;3.58;1.10;;;;;;;9.77;100.00;97354.56;4485945;32;20117;-65
2023/04/01 06:28:11;;;;;;;2.37;1.15;;;;;;;9.85;100.00;97366.00;4486111;31;20512;-65
2023/04/01 06:30:48;;;;;;;4.20;1.80;;;;;;;9.77;100.00;97351.16;4484729;32;20119;-65
2023/04/01 06:33:37;;;;;;;2.45;1.23;;;;;;;9.83;100.00;97357.53;4484725;32;20108;-65
2023/04/01 06:36:32;;;;;;;1.73;1.00;;;;;;;10.02;100.00;97365.00;4484758;32;20088;-65
2023/04/01 06:39:22;;;;;;;2.70;1.00;;;;;;;10.00;100.00;97361.72;4485768;31;20098;-65
2023/04/01 06:42:02;;;;;;;1.50;1.25;;;;;;;10.15;100.00;97361.81;4484824;32;20087;-65
2023/04/01 06:44:50;;;;;;;3.92;1.20;;;;;;;10.29;100.00;97365.53;4485776;31;20127;-65
2023/04/01 06:47:49;;;;;;;3.42;1.23;;;;;;;10.35;100.00;97362.25;4485921;31;20156;-65
2023/04/01 06:50:26;;;;;;;2.85;1.55;;;;;;;10.45;100.00;97370.72;4484528;32;20167;-65
2023/04/01 06:53:12;;;;;;;3.28;1.77;;;;;;;10.40;100.00;97372.22;4485989;31;20363;-65
2023/04/01 06:55:53;;;;;;;3.03;1.60;;;;;;;10.52;100.00;97377.91;4484680;32;20084;-65
2023/04/01 06:58:26;;;;;;;4.05;2.00;;;;;;;10.54;100.00;97375.94;4484677;32;21027;-65
2023/04/01 07:00:57;;;;;;;2.22;1.50;;;;;;;10.67;100.00;97373.56;4484269;32;20084;-65
2023/04/01 07:03:37;;;;;;;4.70;1.58;;;;;;;10.70;100.00;97373.22;4485635;31;20437;-65
2023/04/01 07:06:13;;;;;;;3.97;1.70;;;;;;;10.88;100.00;97372.16;4484306;32;20115;-65
2023/04/01 07:08:43;;;;;;;4.55;1.50;;;;;;;10.92;100.00;97370.81;4484620;32;20642;-65
2023/04/01 07:11:15;;;;;;;3.05;1.50;;;;;;;11.09;100.00;97371.50;4484399;32;20434;-65
2023/04/01 07:14:00;;;;;;;5.93;1.92;;;;;;;11.36;100.00;97384.06;4484281;32;20104;-65
2023/04/01 07:16:41;;;;;;;4.07;1.40;;;;;;;11.46;100.00;97381.22;4485264;31;20076;-65
2023/04/01 07:19:16;;;;;;;2.03;1.23;;;;;;;11.56;100.00;97383.59;4485467;31;20120;-65
2023/04/01 07:21:56;;;;;;;4.80;1.48;;;;;;;11.74;100.00;97375.41;4483637;32;20076;-65
2023/04/01 07:24:29;;;;;;;2.78;1.37;;;;;;;11.92;100.00;97382.94;4484305;32;20175;-65
2023/04/01 07:26:58;;;;;;;3.12;1.40;;;;;;;11.99;100.00;97372.53;4484317;32;20130;-66
2023/04/01 07:29:27;;;;;;;2.83;1.42;;;;;;;11.95;100.00;97377.34;4484019;32;20096;-65
2023/04/01 07:32:03;;;;;;;5.00;1.70;;;;;;;12.06;100.00;97378.69;4485350;31;20104;-65
2023/04/01 07:34:34;;;;;;;2.97;1.25;;;;;;;12.11;100.00;97381.59;4485764;31;20096;-65
2023/04/01 07:37:53;;;;;;;1.52;1.12;;;;;;;12.27;100.00;97369.31;4485362;31;20568;-66
2023/04/01 07:41:01;;;;;;;3.75;1.10;;;;;;;12.29;100.00;97370.72;4423124;32;20167;-65
2023/04/01 07:43:44;;;;;;;2.33;0.82;;;;;;;12.34;100.00;97359.66;4390338;32;20103;-66
2023/04/01 07:46:16;;;;;;;3.75;1.02;;;;;;;12.44;100.00;97370.72;4390344;32;20188;-66
2023/04/01 07:48:57;;;;;;;1.27;0.55;;;;;;;12.43;100.00;97366.47;4377878;32;20132;-66
2023/04/01 07:51:41;;;;;;;1.65;0.65;;;;;;;12.55;100.00;97383.38;4377967;32;20132;-66
2023/04/01 07:54:42;;;;;;;2.40;0.80;;;;;;;12.45;100.00;97363.66;4377828;32;20106;-66
2023/04/01 07:57:22;;;;;;;2.75;0.60;;;;;;;12.38;100.00;97369.66;4377747;32;20196;-66
2023/04/01 08:00:02;;;;;;;0.70;0.50;;;;;;;12.40;100.00;97370.28;4377922;32;20130;-66
2023/04/01 08:02:38;;;;;;;1.73;0.80;;;;;;;12.45;100.00;97372.34;4377529;32;20542;-65
2023/04/01 08:05:22;;;;;;;2.00;0.70;;;;;;;12.34;100.00;97376.25;4390293;32;20098;-66
2023/04/01 08:08:06;;;;;;;2.05;0.68;;;;;;;12.30;100.00;97368.94;4390286;32;20858;-66
2023/04/01 08:10:51;;;;;;;1.15;0.50;;;;;;;12.49;100.00;97378.87;4389203;32;20114;-66
2023/04/01 08:13:44;;;;;;;3.03;0.80;;;;;;;12.41;100.00;97377.16;4374621;32;20097;-66
2023/04/01 08:16:25;;;;;;;1.60;0.73;;;;;;;12.53;100.00;97380.13;4420703;32;20078;-66
2023/04/01 08:19:18;;;;;;;1.65;0.80;;;;;;;12.41;100.00;97384.22;4468551;32;20097;-66
2023/04/01 08:21:52;;;;;;;1.67;0.75;;;;;;;12.60;100.00;97380.22;4469408;32;20139;-66
2023/04/01 08:24:42;;;;;;;2.28;0.77;;;;;;;12.23;100.00;97385.41;4468393;32;20172;-65
2023/04/01 08:27:26;;;;;;;2.17;0.80;;;;;;;12.34;100.00;97392.00;4468442;32;20109;-66
2023/04/01 08:30:06;;;;;;;1.55;0.90;;;;;;;12.15;100.00;97377.63;4468558;32;20093;-66
2023/04/01 08:32:39;;;;;;;4.75;0.80;;;;;;;12.25;100.00;97393.91;4466598;32;20131;-66
2023/04/01 08:35:15;;;;;;;2.17;0.60;;;;;;;12.29;100.00;97389.09;4469737;32;20526;-66
2023/04/01 08:37:44;;;;;;;1.73;0.57;;;;;;;12.57;100.00;97384.00;4468020;32;20433;-66
2023/04/01 08:40:32;;;;;;;2.80;1.00;;;;;;;12.49;100.00;97384.13;4469483;32;20108;-66
2023/04/01 08:43:20;;;;;;;3.87;0.80;;;;;;;12.55;100.00;97385.19;4469291;32;20080;-66
2023/04/01 08:46:10;;;;;;;1.52;0.82;;;;;;;12.65;100.00;97377.03;4468159;32;20614;-66
2023/04/01 08:48:55;;;;;;;3.55;0.93;;;;;;;12.66;100.00;97373.41;4468180;32;20089;-66
2023/04/01 08:51:50;;;;;;;2.17;0.70;;;;;;;12.86;100.00;97378.87;4467544;32;20131;-66
2023/04/01 08:54:33;;;;;;;2.67;0.90;;;;;;;12.52;100.00;97378.50;4469271;32;20080;-66
2023/04/01 08:57:04;;;;;;;3.10;1.00;;;;;;;12.38;100.00;97376.69;4469051;32;20127;-66
2023/04/01 08:59:46;;;;;;;2.08;0.85;;;;;;;12.87;100.00;97383.94;4468097;32;20073;-66
2023/04/01 09:02:31;;;;;;;;;;;;;;;13.03;100.00;97374.19;4468181;32;20570;-66
2023/04/01 09:05:18;;;;;;;3.10;1.20;;;;;;;12.62;100.00;97374.78;4469352;32;20002;-66
2023/04/01 09:07:55;;;;;;;2.35;1.00;;;;;;;12.73;100.00;97374.28;4467743;32;20185;-66
2023/04/01 09:10:42;;;;;;;1.95;0.85;;;;;;;12.89;100.00;97379.31;4467888;32;20089;-66
2023/04/01 09:13:45;;;;;;;4.30;1.10;;;;;;;13.01;100.00;97368.31;4467588;32;20101;-66
2023/04/01 09:16:39;;;;;;;4.07;1.37;;;;;;;12.93;100.00;97380.56;4450773;32;20129;-66
2023/04/01 09:19:35;;;;;;;2.83;1.80;;;;;;;13.05;100.00;97372.19;4420017;32;20122;-66
2023/04/01 09:22:11;;;;;;;2.35;1.15;;;;;;;12.92;100.00;97375.50;4404092;32;20094;-66
2023/04/01 09:25:16;;;;;;;2.30;1.30;;;;;;;13.03;100.00;97371.56;4404583;32;20106;-66
2023/04/01 09:28:09;;;;;;;2.05;0.93;;;;;;;12.89;100.00;97360.91;4404708;32;20110;-66
2023/04/01 09:30:55;;;;;;;2.75;0.95;;;;;;;12.94;100.00;97376.97;4404429;32;20132;-66
2023/04/01 09:33:53;;;;;;;2.05;0.88;;;;;;;12.98;96.90;97360.81;4404349;32;20121;-66
2023/04/01 09:36:39;;;;;;;2.45;1.02;;;;;;;13.41;97.92;97363.44;4404580;32;20118;-66
2023/04/01 09:39:45;;;;;;;4.55;1.00;;;;;;;13.40;92.95;97365.25;4392137;32;20117;-66
2023/04/01 09:42:46;;;;;;;2.22;0.70;;;;;;;13.29;95.36;97360.47;4398084;32;20573;-66
2023/04/01 09:45:26;;;;;;;3.60;0.90;;;;;;;13.16;96.64;97369.06;4405901;32;20391;-66
2023/04/01 09:47:59;;;;;;;1.85;0.60;;;;;;;13.07;98.06;97372.81;4406106;32;20110;-66
2023/04/01 09:50:35;;;;;;;2.30;1.08;;;;;;;12.59;95.17;97368.88;4406322;32;20164;-66
2023/04/01 09:53:35;;;;;;;1.30;0.70;;;;;;;12.57;96.13;97380.56;4379932;32;20186;-66
2023/04/01 09:56:27;;;;;;;3.83;0.70;;;;;;;12.55;98.30;97372.88;4344885;32;20079;-66
2023/04/01 09:59:32;;;;;;;2.75;0.75;;;;;;;12.65;97.77;97374.41;4400532;32;20143;-66
2023/04/01 10:02:20;;;;;;;2.12;0.90;;;;;;;12.43;98.43;97369.09;4406396;32;20186;-66
2023/04/01 10:05:25;;;;;;;2.03;0.75;;;;;;;12.48;99.62;97376.44;4406407;32;20216;-66
2023/04/01 10:08:16;;;;;;;2.83;1.10;;;;;;;12.54;100.00;97383.56;4406230;32;20094;-66
2023/04/01 10:11:04;;;;;;;2.55;1.30;;;;;;;12.48;98.35;97392.19;4407510;32;20145;-66
2023/04/01 10:14:04;;;;;;;1.77;0.85;;;;;;;12.73;100.00;97387.41;4421235;32;20136;-66
2023/04/01 10:17:02;;;;;;;4.53;0.80;;;;;;;12.71;99.89;97387.59;4421586;32;20117;-66
2023/04/01 10:20:07;;;;;;;2.70;0.90;;;;;;;12.65;99.12;97398.03;4421419;32;20109;-66
2023/04/01 10:23:05;;;;;;;4.22;1.17;;;;;;;12.81;99.43;97381.22;4421324;32;20132;-66
2023/04/01 10:26:08;;;;;;;3.20;1.10;;;;;;;12.90;98.23;97386.19;4421480;32;20133;-66
2023/04/01 10:29:13;;;;;;;1.67;1.02;;;;;;;13.13;97.23;97380.75;4345717;33;20372;-66
2023/04/01 10:32:18;;;;;;;5.90;0.93;;;;;;;13.30;96.17;97381.31;4350860;32;20518;-66
2023/04/01 10:35:03;;;;;;;2.70;0.85;;;;;;;13.51;92.48;97398.12;4391144;32;20604;-66
2023/04/01 10:37:42;;;;;;;2.50;1.00;;;;;;;13.29;89.97;97389.41;4391125;32;20119;-66
2023/04/01 10:40:53;;;;;;;6.03;1.17;;;;;;;13.68;88.57;97385.50;4391126;32;20110;-66
2023/04/01 10:43:37;;;;;;;1.45;0.75;;;;;;;13.63;89.22;97378.19;4360702;32;20075;-66
2023/04/01 10:46:10;;;;;;;4.50;1.05;;;;;;;13.54;89.64;97376.72;4360990;32;20196;-66
2023/04/01 10:48:40;;;;;;;3.28;0.90;;;;;;;13.73;89.98;97382.31;4348705;32;20327;-66
2023/04/01 10:51:33;;;;;;;4.05;1.40;;;;;;;13.70;91.60;97374.78;4360972;32;20141;-66
2023/04/01 10:54:29;;;;;;;2.28;0.95;;;;;;;13.57;92.41;97384.22;4360887;32;20413;-66
2023/04/01 10:57:02;;;;;;;3.50;1.00;;;;;;;13.29;91.66;97371.81;4360364;32;20111;-66
2023/04/01 10:59:43;;;;;;;3.30;0.75;;;;;;;13.48;91.05;97372.22;4349480;32;20099;-66
2023/04/01 11:02:41;;;;;;;5.35;1.05;;;;;;;13.45;90.87;97378.66;4360798;32;20090;-66
2023/04/01 11:05:53;;;;;;;2.72;0.70;;;;;;;13.83;89.35;97374.88;4367628;32;20114;-66
2023/04/01 11:08:26;;;;;;;4.50;1.00;;;;;;;14.04;87.82;97379.28;4405624;32;20206;-66
2023/04/01 11:11:25;;;;;;;3.95;0.80;;;;;;;13.95;87.58;97378.59;4405854;32;20153;-66
2023/04/01 11:14:14;;;;;;;2.17;1.00;;;;;;;14.01;88.25;97371.75;4409034;32;20160;-66
2023/04/01 11:17:04;;;;;;;2.97;0.80;;;;;;;13.96;83.44;97364.44;4420933;32;20140;-66
2023/04/01 11:20:03;;;;;;;2.70;0.70;;;;;;;13.81;82.61;97380.34;4450044;32;20100;-66
2023/04/01 11:22:54;;;;;;;3.42;0.80;;;;;;;13.87;82.16;97370.87;4485315;31;20431;-66
2023/04/01 11:25:53;;;;;;;0.93;0.50;;;;;;;14.08;82.35;97380.53;4485431;32;20171;-66
2023/04/01 11:28:55;;;;;;;2.78;0.70;;;;;;;14.36;83.09;97375.19;4485252;31;20114;-66
2023/04/01 11:31:37;;;;;;;1.15;0.55;;;;;;;14.44;82.17;97373.41;4485687;32;20081;-66
2023/04/01 11:34:16;;;;;;;1.30;0.65;;;;;;;14.53;81.08;97380.94;4484053;32;20179;-66
2023/04/01 11:37:00;;;;;;;2.78;0.50;;;;;;;14.45;79.93;97377.66;4484045;32;20501;-66
2023/04/01 11:40:24;;;;;;;2.22;0.57;;;;;;;14.46;80.46;97389.81;4483930;32;20130;-66
2023/04/01 11:43:00;;;;;;;0.95;0.50;;;;;;;14.34;82.03;97371.94;4423379;32;20180;-66
2023/04/01 11:45:33;;;;;;;3.20;1.12;;;;;;;14.10;82.60;97391.66;4423795;32;20093;-66
2023/04/01 11:48:46;;;;;;;0.85;0.57;;;;;;;13.94;79.04;97392.78;4423866;32;20106;-66
2023/04/01 11:51:31;;;;;;;3.40;0.62;;;;;;;13.91;78.38;97387.09;4436282;32;20212;-66
2023/04/01 11:54:10;;;;;;;1.27;0.40;;;;;;;14.12;82.18;97388.84;4436357;32;20113;-66
2023/04/01 11:56:49;;;;;;;0.98;0.50;;;;;;;14.11;79.97;97395.09;4436067;32;20093;-66
2023/04/01 11:59:40;;;;;;;4.55;0.73;;;;;;;14.27;80.75;97396.63;4436132;32;20482;-66
2023/04/01 12:02:29;;;;;;;2.10;0.45;;;;;;;14.40;79.56;97391.44;4435815;32;20135;-66
2023/04/01 12:05:19;;;;;;;1.87;0.68;;;;;;;14.41;79.55;97392.22;4423287;32;20124;-66
2023/04/01 12:08:11;;;;;;;2.28;0.57;;;;;;;14.16;78.92;97390.09;4435811;32;20129;-66
2023/04/01 12:11:01;;;;;;;1.52;0.50;;;;;;;14.23;81.16;97388.31;4435255;32;20113;-66
2023/04/01 12:14:07;;;;;;;4.40;0.70;;;;;;;14.46;80.52;97380.09;4421122;32;20094;-66
2023/04/01 12:16:40;;;;;;;2.50;0.65;;;;;;;14.58;79.32;97379.53;4406915;32;20608;-66
2023/04/01 12:19:16;;;;;;;1.55;0.47;;;;;;;14.51;80.26;97387.41;4435933;32;20502;-66
2023/04/01 12:22:08;;;;;;;3.70;0.75;;;;;;;14.47;77.59;97381.72;4435674;32;20101;-66